createdAt,value
2023-05-18T00:00:46.929Z,2.04
2023-05-18T00:01:54.313Z,2.00
2023-05-18T00:02:58.361Z,1.94
2023-05-18T00:04:04.577Z,1.94
2023-05-18T00:05:09.077Z,1.93
2023-05-18T00:06:14.184Z,1.90
2023-05-18T00:07:16.312Z,1.89
2023-05-18T00:08:21.261Z,1.85
2023-05-18T00:09:26.941Z,1.79
2023-05-18T00:10:40.960Z,1.74
2023-05-18T00:11:43.115Z,1.71
2023-05-18T00:12:47.937Z,1.68
2023-05-18T00:13:50.114Z,1.63
2023-05-18T00:14:54.872Z,1.63
2023-05-18T00:15:57.234Z,1.62
2023-05-18T00:17:02.148Z,1.55
2023-05-18T00:18:04.934Z,1.51
2023-05-18T00:19:09.847Z,1.50
2023-05-18T00:20:12.883Z,1.46
2023-05-18T00:21:18.173Z,1.46
2023-05-18T00:22:20.401Z,1.44
2023-05-18T00:23:25.129Z,1.42
2023-05-18T00:24:29.947Z,1.42
2023-05-18T00:25:34.608Z,1.40
2023-05-18T00:26:37.443Z,1.39
2023-05-18T00:27:42.158Z,1.33
2023-05-18T00:28:44.766Z,1.32
2023-05-18T00:29:49.506Z,1.30
2023-05-18T00:30:51.967Z,1.30
2023-05-18T00:31:56.905Z,1.25
2023-05-18T00:32:59.127Z,1.19
2023-05-18T00:34:03.909Z,1.14
2023-05-18T00:35:07.110Z,1.11
2023-05-18T00:36:12.189Z,1.11
2023-05-18T00:37:14.656Z,1.11
2023-05-18T00:38:19.484Z,1.11
2023-05-18T00:39:21.620Z,1.10
2023-05-18T00:40:30.520Z,1.11
2023-05-18T00:41:33.802Z,1.14
2023-05-18T00:42:38.504Z,1.17
2023-05-18T00:43:41.077Z,1.21
2023-05-18T00:44:45.825Z,1.19
2023-05-18T00:45:48.027Z,1.17
2023-05-18T00:46:53.299Z,1.16
2023-05-18T00:47:55.467Z,1.11
2023-05-18T00:49:02.191Z,1.13
2023-05-18T00:50:05.099Z,1.11
2023-05-18T00:51:10.141Z,1.12
2023-05-18T00:52:12.250Z,1.07
2023-05-18T00:53:17.034Z,1.02
2023-05-18T00:54:20.313Z,1.02
2023-05-18T00:55:25.131Z,1.05
2023-05-18T00:56:34.339Z,1.09
2023-05-18T00:57:39.246Z,1.14
2023-05-18T00:58:42.291Z,1.15
2023-05-18T00:59:47.935Z,1.15
2023-05-18T01:00:50.158Z,1.13
2023-05-18T01:01:54.946Z,1.11
2023-05-18T01:02:57.630Z,1.06
2023-05-18T01:04:03.301Z,1.09
2023-05-18T01:05:06.172Z,1.10
2023-05-18T01:06:13.202Z,1.12
2023-05-18T01:07:16.851Z,1.14
2023-05-18T01:08:21.941Z,1.10
2023-05-18T01:09:24.753Z,1.07
2023-05-18T01:10:29.765Z,1.13
2023-05-18T01:11:56.184Z,1.13
2023-05-18T01:13:06.080Z,1.22
2023-05-18T01:14:14.173Z,1.27
2023-05-18T01:15:25.312Z,1.29
2023-05-18T01:16:37.637Z,1.36
2023-05-18T01:17:53.064Z,1.33
2023-05-18T01:19:01.416Z,1.33
2023-05-18T01:20:22.161Z,1.37
2023-05-18T01:21:43.501Z,1.41
2023-05-18T01:23:10.448Z,1.41
2023-05-18T01:24:31.371Z,1.44
2023-05-18T01:25:41.236Z,1.43
2023-05-18T01:26:50.758Z,1.46
2023-05-18T01:27:57.088Z,1.49
2023-05-18T01:29:01.782Z,1.53
2023-05-18T01:30:07.909Z,1.52
2023-05-18T01:31:11.069Z,1.50
2023-05-18T01:32:22.380Z,1.49
2023-05-18T01:33:25.387Z,1.50
2023-05-18T01:34:30.145Z,1.50
2023-05-18T01:35:32.364Z,1.48
2023-05-18T01:36:37.417Z,1.48
2023-05-18T01:37:40.194Z,1.46
2023-05-18T01:38:46.617Z,1.49
2023-05-18T01:39:48.805Z,1.50
2023-05-18T01:41:01.675Z,1.45
2023-05-18T01:42:14.613Z,1.45
2023-05-18T01:43:20.730Z,1.41
2023-05-18T01:44:29.686Z,1.42
2023-05-18T01:45:32.864Z,1.41
2023-05-18T01:46:43.014Z,1.39
2023-05-18T01:47:49.134Z,1.35
2023-05-18T01:48:59.324Z,1.34
2023-05-18T01:50:06.586Z,1.31
2023-05-18T01:51:16.350Z,1.31
2023-05-18T01:52:21.544Z,1.29
2023-05-18T01:53:30.876Z,1.30
2023-05-18T01:54:34.014Z,1.28
2023-05-18T01:55:40.564Z,1.26
2023-05-18T01:56:44.656Z,1.27
2023-05-18T01:57:54.347Z,1.28
2023-05-18T01:58:57.978Z,1.26
2023-05-18T02:00:04.845Z,1.25
2023-05-18T02:01:07.589Z,1.24
2023-05-18T02:02:12.402Z,1.21
2023-05-18T02:03:15.236Z,1.14
2023-05-18T02:04:20.120Z,1.13
2023-05-18T02:05:22.421Z,1.13
2023-05-18T02:06:27.155Z,1.15
2023-05-18T02:07:29.285Z,1.16
2023-05-18T02:08:35.086Z,1.15
2023-05-18T02:09:37.326Z,1.11
2023-05-18T02:10:42.097Z,1.07
2023-05-18T02:11:44.216Z,1.09
2023-05-18T02:12:53.041Z,1.11
2023-05-18T02:13:55.197Z,1.14
2023-05-18T02:15:01.230Z,1.17
2023-05-18T02:16:04.358Z,1.16
2023-05-18T02:17:10.460Z,1.17
2023-05-18T02:18:12.713Z,1.11
2023-05-18T02:19:17.792Z,1.07
2023-05-18T02:20:20.102Z,1.08
2023-05-18T02:21:26.285Z,1.09
2023-05-18T02:22:28.442Z,1.04
2023-05-18T02:23:34.171Z,1.01
2023-05-18T02:24:36.808Z,0.99
2023-05-18T02:25:42.215Z,1.03
2023-05-18T02:26:44.595Z,1.01
2023-05-18T02:27:52.860Z,0.99
2023-05-18T02:28:54.988Z,0.97
2023-05-18T02:29:59.716Z,0.95
2023-05-18T02:31:06.362Z,0.98
2023-05-18T02:32:11.802Z,0.95
2023-05-18T02:33:14.262Z,0.93
2023-05-18T02:34:19.870Z,0.90
2023-05-18T02:35:22.020Z,0.91
2023-05-18T02:36:26.894Z,0.88
2023-05-18T02:37:29.192Z,0.86
2023-05-18T02:38:33.847Z,0.81
2023-05-18T02:39:35.975Z,0.81
2023-05-18T02:40:40.890Z,0.77
2023-05-18T02:41:43.074Z,0.76
2023-05-18T02:42:47.806Z,0.75
2023-05-18T02:43:52.476Z,0.75
2023-05-18T02:44:57.163Z,0.77
2023-05-18T02:45:59.395Z,0.76
2023-05-18T02:47:04.099Z,0.76
2023-05-18T02:48:06.896Z,0.76
2023-05-18T02:49:12.104Z,0.80
2023-05-18T02:50:14.226Z,0.91
2023-05-18T02:51:18.956Z,0.96
2023-05-18T02:52:21.015Z,1.01
2023-05-18T02:53:26.665Z,0.96
2023-05-18T02:54:28.750Z,1.06
2023-05-18T02:55:33.470Z,0.98
2023-05-18T02:56:35.699Z,0.98
2023-05-18T02:57:40.475Z,1.00
2023-05-18T02:58:43.912Z,1.08
2023-05-18T02:59:51.197Z,1.10
2023-05-18T03:00:55.675Z,1.14
2023-05-18T03:02:00.481Z,1.13
2023-05-18T03:03:03.129Z,1.16
2023-05-18T03:04:08.073Z,1.16
2023-05-18T03:05:10.605Z,1.23
2023-05-18T03:06:16.545Z,1.22
2023-05-18T03:07:19.012Z,1.24
2023-05-18T03:08:24.016Z,1.27
2023-05-18T03:09:26.728Z,1.27
2023-05-18T03:10:31.618Z,1.31
2023-05-18T03:11:33.748Z,1.32
2023-05-18T03:12:38.457Z,1.32
2023-05-18T03:13:40.592Z,1.45
2023-05-18T03:14:45.317Z,1.42
2023-05-18T03:15:51.182Z,1.42
2023-05-18T03:16:58.085Z,1.43
2023-05-18T03:18:00.440Z,1.44
2023-05-18T03:19:05.221Z,1.44
2023-05-18T03:20:10.751Z,1.45
2023-05-18T03:21:15.701Z,1.44
2023-05-18T03:22:18.315Z,1.40
2023-05-18T03:23:23.025Z,1.39
2023-05-18T03:24:30.634Z,1.32
2023-05-18T03:25:38.385Z,1.31
2023-05-18T03:26:42.054Z,1.30
2023-05-18T03:27:46.989Z,1.29
2023-05-18T03:28:49.077Z,1.31
2023-05-18T03:29:54.392Z,1.27
2023-05-18T03:30:59.166Z,1.24
2023-05-18T03:32:04.246Z,1.24
2023-05-18T03:33:06.393Z,1.23
2023-05-18T03:34:11.106Z,1.20
2023-05-18T03:35:13.224Z,1.21
2023-05-18T03:36:17.893Z,1.17
2023-05-18T03:37:20.094Z,1.16
2023-05-18T03:38:24.822Z,1.14
2023-05-18T03:39:26.901Z,1.18
2023-05-18T03:40:31.949Z,1.17
2023-05-18T03:41:34.166Z,1.17
2023-05-18T03:42:38.891Z,1.17
2023-05-18T03:43:41.041Z,1.11
2023-05-18T03:44:46.181Z,1.07
2023-05-18T03:45:48.323Z,1.11
2023-05-18T03:46:55.820Z,1.14
2023-05-18T03:47:58.067Z,1.16
2023-05-18T03:49:05.092Z,1.18
2023-05-18T03:50:08.332Z,1.26
2023-05-18T03:51:13.072Z,1.34
2023-05-18T03:52:16.156Z,1.39
2023-05-18T03:53:21.869Z,1.43
2023-05-18T03:54:24.815Z,1.48
2023-05-18T03:55:30.284Z,1.56
2023-05-18T03:56:32.840Z,1.65
2023-05-18T03:57:37.550Z,1.67
2023-05-18T03:58:39.782Z,1.71
2023-05-18T03:59:45.367Z,1.78
2023-05-18T04:00:47.737Z,1.82
2023-05-18T04:01:55.167Z,1.82
2023-05-18T04:02:57.550Z,1.85
2023-05-18T04:04:02.758Z,1.83
2023-05-18T04:05:05.647Z,1.85
2023-05-18T04:06:11.277Z,1.87
2023-05-18T04:07:15.630Z,1.85
2023-05-18T04:08:20.468Z,1.84
2023-05-18T04:09:24.053Z,1.85
2023-05-18T04:10:28.861Z,1.83
2023-05-18T04:11:31.226Z,1.85
2023-05-18T04:12:35.907Z,1.83
2023-05-18T04:13:42.166Z,1.86
2023-05-18T04:14:44.312Z,1.87
2023-05-18T04:15:49.014Z,1.86
2023-05-18T04:16:54.151Z,1.88
2023-05-18T04:17:59.936Z,1.91
2023-05-18T04:19:06.260Z,1.91
2023-05-18T04:20:14.464Z,1.91
2023-05-18T04:21:17.621Z,1.89
2023-05-18T04:22:22.291Z,1.90
2023-05-18T04:23:24.436Z,1.97
2023-05-18T04:24:29.650Z,1.98
2023-05-18T04:25:32.062Z,1.95
2023-05-18T04:26:38.694Z,1.98
2023-05-18T04:27:42.145Z,1.98
2023-05-18T04:28:47.469Z,2.07
2023-05-18T04:29:49.605Z,2.01
2023-05-18T04:30:54.587Z,2.05
2023-05-18T04:32:01.304Z,2.01
2023-05-18T04:33:06.853Z,2.06
2023-05-18T04:34:09.306Z,2.07
2023-05-18T04:35:20.299Z,2.10
2023-05-18T04:36:25.901Z,2.09
2023-05-18T04:37:30.614Z,2.09
2023-05-18T04:38:34.749Z,2.13
2023-05-18T04:39:39.809Z,2.12
2023-05-18T04:40:42.988Z,2.16
2023-05-18T04:41:47.673Z,2.25
2023-05-18T04:42:49.899Z,2.26
2023-05-18T04:43:55.446Z,2.27
2023-05-18T04:44:59.026Z,2.35
2023-05-18T04:46:03.804Z,2.39
2023-05-18T04:47:08.799Z,2.48
2023-05-18T04:48:14.632Z,2.53
2023-05-18T04:49:16.820Z,2.60
2023-05-18T04:50:24.011Z,2.60
2023-05-18T04:51:26.334Z,2.65
2023-05-18T04:52:31.166Z,2.73
2023-05-18T04:53:33.815Z,2.73
2023-05-18T04:54:41.279Z,2.76
2023-05-18T04:55:43.460Z,2.81
2023-05-18T04:56:48.165Z,2.84
2023-05-18T04:57:50.978Z,2.89
2023-05-18T04:58:59.565Z,2.94
2023-05-18T05:00:02.430Z,2.97
2023-05-18T05:01:08.181Z,3.04
2023-05-18T05:02:12.952Z,3.09
2023-05-18T05:03:17.752Z,3.15
2023-05-18T05:04:21.781Z,3.19
2023-05-18T05:05:27.801Z,3.23
2023-05-18T05:06:30.101Z,3.30
2023-05-18T05:07:34.804Z,3.36
2023-05-18T05:08:37.371Z,3.40
2023-05-18T05:09:42.543Z,3.44
2023-05-18T05:10:44.661Z,3.49
2023-05-18T05:11:49.562Z,3.54
2023-05-18T05:12:52.217Z,3.58
2023-05-18T05:13:57.027Z,3.65
2023-05-18T05:14:59.209Z,3.67
2023-05-18T05:16:04.023Z,3.72
2023-05-18T05:17:06.209Z,3.77
2023-05-18T05:18:13.539Z,3.80
2023-05-18T05:19:15.783Z,3.86
2023-05-18T05:20:21.074Z,3.89
2023-05-18T05:21:23.232Z,3.95
2023-05-18T05:22:28.134Z,4.02
2023-05-18T05:23:30.223Z,4.05
2023-05-18T05:24:34.964Z,4.13
2023-05-18T05:25:37.108Z,4.15
2023-05-18T05:26:41.810Z,4.19
2023-05-18T05:27:44.103Z,4.22
2023-05-18T05:28:48.965Z,4.26
2023-05-18T05:29:51.318Z,4.32
2023-05-18T05:30:56.057Z,4.39
2023-05-18T05:31:58.179Z,4.44
2023-05-18T05:33:03.068Z,4.47
2023-05-18T05:34:07.795Z,4.58
2023-05-18T05:35:13.251Z,4.66
2023-05-18T05:36:15.316Z,4.71
2023-05-18T05:37:20.963Z,4.72
2023-05-18T05:38:25.977Z,4.78
2023-05-18T05:39:30.636Z,4.82
2023-05-18T05:40:33.274Z,4.86
2023-05-18T05:41:37.977Z,4.87
2023-05-18T05:42:40.066Z,4.91
2023-05-18T05:43:44.757Z,4.96
2023-05-18T05:44:46.902Z,5.04
2023-05-18T05:45:51.778Z,5.05
2023-05-18T05:46:53.950Z,5.15
2023-05-18T05:47:58.734Z,5.20
2023-05-18T05:49:02.283Z,5.26
2023-05-18T05:50:10.616Z,5.26
2023-05-18T05:51:12.781Z,5.31
2023-05-18T05:52:17.578Z,5.33
2023-05-18T05:53:21.077Z,5.35
2023-05-18T05:54:25.873Z,5.43
2023-05-18T05:55:28.180Z,5.48
2023-05-18T05:56:32.865Z,5.56
2023-05-18T05:57:35.027Z,5.61
2023-05-18T05:58:39.752Z,5.65
2023-05-18T05:59:41.939Z,5.71
2023-05-18T06:00:47.429Z,5.76
2023-05-18T06:01:49.665Z,5.79
2023-05-18T06:02:54.490Z,5.81
2023-05-18T06:03:56.725Z,5.90
2023-05-18T06:05:01.848Z,5.93
2023-05-18T06:06:06.992Z,6.00
2023-05-18T06:07:11.728Z,6.05
2023-05-18T06:08:13.856Z,6.08
2023-05-18T06:09:18.927Z,6.13
2023-05-18T06:10:21.089Z,6.13
2023-05-18T06:11:25.791Z,6.19
2023-05-18T06:12:28.161Z,6.26
2023-05-18T06:13:32.864Z,6.31
2023-05-18T06:14:35.026Z,6.39
2023-05-18T06:15:39.735Z,6.44
2023-05-18T06:16:42.291Z,6.46
2023-05-18T06:17:47.290Z,6.44
2023-05-18T06:18:49.655Z,6.51
2023-05-18T06:19:54.413Z,6.54
2023-05-18T06:20:56.987Z,6.58
2023-05-18T06:22:04.375Z,6.65
2023-05-18T06:23:06.515Z,6.66
2023-05-18T06:24:11.932Z,6.72
2023-05-18T06:25:14.204Z,6.77
2023-05-18T06:26:18.907Z,6.77
2023-05-18T06:27:23.785Z,6.85
2023-05-18T06:28:31.343Z,6.87
2023-05-18T06:29:33.449Z,6.93
2023-05-18T06:30:38.170Z,7.01
2023-05-18T06:31:41.736Z,7.08
2023-05-18T06:32:46.632Z,7.11
2023-05-18T06:33:48.918Z,7.14
2023-05-18T06:34:53.733Z,7.23
2023-05-18T06:35:56.305Z,7.25
2023-05-18T06:37:01.530Z,7.29
2023-05-18T06:38:06.305Z,7.37
2023-05-18T06:39:11.115Z,7.38
2023-05-18T06:40:13.443Z,7.38
2023-05-18T06:41:18.302Z,7.42
2023-05-18T06:42:20.404Z,7.38
2023-05-18T06:43:27.028Z,7.46
2023-05-18T06:44:29.136Z,7.56
2023-05-18T06:45:36.802Z,7.61
2023-05-18T06:46:39.893Z,7.71
2023-05-18T06:47:44.996Z,7.76
2023-05-18T06:48:47.493Z,7.79
2023-05-18T06:49:52.259Z,7.87
2023-05-18T06:50:54.449Z,7.92
2023-05-18T06:51:59.077Z,8.01
2023-05-18T06:53:04.784Z,8.05
2023-05-18T06:54:12.172Z,8.11
2023-05-18T06:55:15.578Z,8.18
2023-05-18T06:56:20.277Z,8.27
2023-05-18T06:57:22.416Z,8.29
2023-05-18T06:58:27.095Z,8.38
2023-05-18T06:59:29.404Z,8.44
2023-05-18T07:00:34.093Z,8.47
2023-05-18T07:01:36.263Z,8.54
2023-05-18T07:02:41.501Z,8.58
2023-05-18T07:03:44.015Z,8.63
2023-05-18T07:04:48.900Z,8.69
2023-05-18T07:05:51.080Z,8.70
2023-05-18T07:06:56.578Z,8.71
2023-05-18T07:07:58.749Z,8.67
2023-05-18T07:09:06.002Z,8.74
2023-05-18T07:10:11.488Z,8.78
2023-05-18T07:11:16.598Z,8.82
2023-05-18T07:12:21.351Z,8.86
2023-05-18T07:13:23.765Z,8.90
2023-05-18T07:14:28.586Z,8.94
2023-05-18T07:15:31.063Z,8.93
2023-05-18T07:16:36.056Z,8.99
2023-05-18T07:17:38.838Z,9.04
2023-05-18T07:18:44.685Z,9.06
2023-05-18T07:19:46.844Z,9.12
2023-05-18T07:20:51.708Z,9.22
2023-05-18T07:21:57.075Z,9.26
2023-05-18T07:22:59.262Z,9.34
2023-05-18T07:24:04.191Z,9.43
2023-05-18T07:25:06.688Z,9.50
2023-05-18T07:26:14.773Z,9.47
2023-05-18T07:27:19.520Z,9.49
2023-05-18T07:28:21.984Z,9.52
2023-05-18T07:29:27.077Z,9.56
2023-05-18T07:30:29.269Z,9.62
2023-05-18T07:31:34.159Z,9.69
2023-05-18T07:32:36.480Z,9.68
2023-05-18T07:33:41.282Z,9.75
2023-05-18T07:34:43.848Z,9.81
2023-05-18T07:35:48.678Z,9.86
2023-05-18T07:36:50.878Z,9.92
2023-05-18T07:37:56.090Z,9.99
2023-05-18T07:39:00.240Z,10.03
2023-05-18T07:40:05.543Z,10.12
2023-05-18T07:41:07.721Z,10.20
2023-05-18T07:42:15.110Z,10.29
2023-05-18T07:43:17.248Z,10.34
2023-05-18T07:44:23.039Z,10.35
2023-05-18T07:45:27.859Z,10.37
2023-05-18T07:46:30.058Z,10.40
2023-05-18T07:47:34.911Z,10.38
2023-05-18T07:48:39.001Z,10.44
2023-05-18T07:49:45.465Z,10.56
2023-05-18T07:50:47.899Z,10.65
2023-05-18T07:51:52.692Z,10.76
2023-05-18T07:52:54.853Z,10.80
2023-05-18T07:53:59.538Z,10.83
2023-05-18T07:55:01.917Z,10.85
2023-05-18T07:56:07.724Z,10.80
2023-05-18T07:57:13.172Z,10.89
2023-05-18T07:58:17.858Z,10.91
2023-05-18T07:59:20.652Z,10.95
2023-05-18T08:00:25.661Z,11.04
2023-05-18T08:01:30.343Z,11.13
2023-05-18T08:02:35.407Z,11.18
2023-05-18T08:03:37.795Z,11.16
2023-05-18T08:04:42.656Z,11.27
2023-05-18T08:05:47.393Z,11.25
2023-05-18T08:06:56.370Z,11.31
2023-05-18T08:07:59.184Z,11.39
2023-05-18T08:09:04.512Z,11.45
2023-05-18T08:10:07.222Z,11.51
2023-05-18T08:11:12.059Z,11.56
2023-05-18T08:12:16.823Z,11.63
2023-05-18T08:13:21.769Z,11.77
2023-05-18T08:14:23.938Z,11.83
2023-05-18T08:15:29.270Z,11.91
2023-05-18T08:16:53.162Z,11.89
2023-05-18T08:17:57.995Z,11.94
2023-05-18T08:19:00.643Z,11.97
2023-05-18T08:20:05.569Z,12.04
2023-05-18T08:21:09.890Z,12.05
2023-05-18T08:22:15.078Z,12.13
2023-05-18T08:23:17.172Z,12.18
2023-05-18T08:24:22.247Z,12.12
2023-05-18T08:25:25.452Z,12.11
2023-05-18T08:26:30.118Z,12.17
2023-05-18T08:27:37.434Z,12.24
2023-05-18T08:28:42.728Z,12.34
2023-05-18T08:29:47.549Z,12.42
2023-05-18T08:30:49.651Z,12.45
2023-05-18T08:31:55.029Z,12.58
2023-05-18T08:32:57.212Z,12.69
2023-05-18T08:34:01.992Z,12.77
2023-05-18T08:35:08.629Z,12.87
2023-05-18T08:36:11.381Z,12.96
2023-05-18T08:37:16.058Z,13.05
2023-05-18T08:38:18.451Z,13.01
2023-05-18T08:39:23.233Z,13.02
2023-05-18T08:40:36.184Z,13.06
2023-05-18T08:41:44.200Z,13.01
2023-05-18T08:43:04.457Z,13.09
2023-05-18T08:44:12.325Z,13.21
2023-05-18T08:45:24.143Z,13.28
2023-05-18T08:46:31.924Z,13.35
2023-05-18T08:47:38.440Z,13.45
2023-05-18T08:48:46.510Z,13.50
2023-05-18T08:49:54.678Z,13.60
2023-05-18T08:50:58.950Z,13.69
2023-05-18T08:52:07.214Z,13.86
2023-05-18T08:53:11.414Z,13.96
2023-05-18T08:54:22.449Z,13.95
2023-05-18T08:55:25.897Z,14.08
2023-05-18T08:56:33.684Z,13.95
2023-05-18T08:57:37.636Z,14.12
2023-05-18T08:58:50.886Z,14.25
2023-05-18T08:59:57.580Z,14.24
2023-05-18T09:01:00.301Z,14.40
2023-05-18T09:02:05.190Z,14.43
2023-05-18T09:03:07.733Z,14.49
2023-05-18T09:04:13.411Z,14.62
2023-05-18T09:05:16.401Z,14.58
2023-05-18T09:06:24.827Z,14.68
2023-05-18T09:07:28.373Z,14.62
2023-05-18T09:08:34.088Z,14.72
2023-05-18T09:09:39.078Z,14.85
2023-05-18T09:10:41.504Z,15.04
2023-05-18T09:11:47.303Z,15.13
2023-05-18T09:12:51.069Z,15.09
2023-05-18T09:13:58.527Z,15.05
2023-05-18T09:15:01.488Z,15.09
2023-05-18T09:16:08.084Z,15.11
2023-05-18T09:17:12.963Z,15.31
2023-05-18T09:18:15.102Z,15.58
2023-05-18T09:19:20.412Z,15.77
2023-05-18T09:20:22.775Z,15.95
2023-05-18T09:21:27.570Z,16.26
2023-05-18T09:22:35.733Z,16.50
2023-05-18T09:23:41.672Z,16.33
2023-05-18T09:24:44.173Z,16.67
2023-05-18T09:25:50.517Z,16.81
2023-05-18T09:26:52.868Z,17.13
2023-05-18T09:27:57.585Z,17.05
2023-05-18T09:29:17.785Z,17.05
2023-05-18T09:30:22.733Z,17.06
2023-05-18T09:31:26.831Z,17.08
2023-05-18T09:32:32.356Z,17.09
2023-05-18T09:33:39.973Z,17.13
2023-05-18T09:34:43.518Z,17.40
2023-05-18T09:35:48.964Z,17.47
2023-05-18T09:36:57.979Z,17.50
2023-05-18T09:38:03.955Z,17.44
2023-05-18T09:39:12.413Z,17.64
2023-05-18T09:40:16.847Z,17.73
2023-05-18T09:41:22.488Z,17.63
2023-05-18T09:42:30.530Z,17.67
2023-05-18T09:43:38.278Z,17.70
2023-05-18T09:44:46.425Z,17.79
2023-05-18T09:45:49.912Z,17.81
2023-05-18T09:46:59.005Z,17.80
2023-05-18T09:48:01.136Z,17.92
2023-05-18T09:49:07.129Z,17.86
2023-05-18T09:50:10.446Z,18.34
2023-05-18T09:51:17.537Z,18.42
2023-05-18T09:52:19.622Z,18.66
2023-05-18T09:53:26.009Z,18.65
2023-05-18T09:54:28.387Z,18.60
2023-05-18T09:55:33.452Z,18.54
2023-05-18T09:56:40.953Z,18.67
2023-05-18T09:57:44.575Z,18.64
2023-05-18T09:58:49.778Z,18.77
2023-05-18T10:00:04.821Z,19.18
2023-05-18T10:01:09.609Z,19.35
2023-05-18T10:02:13.634Z,19.35
2023-05-18T10:03:23.234Z,19.67
2023-05-18T10:04:39.011Z,20.20
2023-05-18T10:05:45.494Z,20.19
2023-05-18T10:06:49.764Z,20.38
2023-05-18T10:07:54.554Z,20.85
2023-05-18T10:09:00.308Z,21.09
2023-05-18T10:10:03.918Z,21.23
2023-05-18T10:11:09.032Z,21.20
2023-05-18T10:12:12.263Z,21.40
2023-05-18T10:13:20.160Z,21.29
2023-05-18T10:14:24.715Z,21.35
2023-05-18T10:15:34.277Z,21.38
2023-05-18T10:16:39.730Z,21.39
2023-05-18T10:17:43.922Z,21.51
2023-05-18T10:18:51.116Z,20.67
2023-05-18T10:19:55.987Z,20.67
2023-05-18T10:21:02.432Z,20.73
2023-05-18T10:22:06.658Z,20.82
2023-05-18T10:23:12.621Z,20.43
2023-05-18T10:24:20.612Z,20.49
2023-05-18T10:25:26.290Z,20.38
2023-05-18T10:26:33.368Z,20.55
2023-05-18T10:27:39.441Z,20.79
2023-05-18T10:28:47.595Z,20.73
2023-05-18T10:29:52.715Z,20.92
2023-05-18T10:31:01.430Z,21.01
2023-05-18T10:32:12.765Z,21.08
2023-05-18T10:33:28.455Z,21.18
2023-05-18T10:34:35.742Z,21.17
2023-05-18T10:35:38.997Z,21.48
2023-05-18T10:36:44.918Z,21.47
2023-05-18T10:37:48.294Z,21.29
2023-05-18T10:38:53.487Z,21.40
2023-05-18T10:39:56.627Z,21.50
2023-05-18T10:41:03.115Z,21.08
2023-05-18T10:42:08.843Z,21.59
2023-05-18T10:43:16.255Z,21.75
2023-05-18T10:44:22.243Z,21.75
2023-05-18T10:45:28.524Z,22.28
2023-05-18T10:47:42.752Z,21.49
2023-05-18T10:48:53.704Z,21.60
2023-05-18T10:49:56.651Z,21.43
2023-05-18T10:51:05.706Z,21.63
2023-05-18T10:52:09.328Z,21.84
2023-05-18T10:53:15.899Z,22.20
2023-05-18T10:54:18.787Z,22.20
2023-05-18T10:55:23.503Z,22.23
2023-05-18T10:56:26.411Z,22.64
2023-05-18T10:57:38.118Z,22.86
2023-05-18T10:58:43.544Z,23.10
2023-05-18T10:59:48.495Z,23.12
2023-05-18T11:00:57.424Z,22.98
2023-05-18T11:02:02.640Z,22.67
2023-05-18T11:03:13.819Z,22.48
2023-05-18T11:04:16.116Z,22.51
2023-05-18T11:05:27.147Z,22.64
2023-05-18T11:06:29.259Z,22.82
2023-05-18T11:07:34.695Z,23.03
2023-05-18T11:08:44.065Z,23.00
2023-05-18T11:09:48.801Z,23.17
2023-05-18T11:11:03.320Z,22.67
2023-05-18T11:12:12.295Z,23.52
2023-05-18T11:13:18.112Z,23.31
2023-05-18T11:14:26.557Z,23.34
2023-05-18T11:16:01.548Z,23.49
2023-05-18T11:17:26.364Z,23.63
2023-05-18T11:18:36.336Z,23.61
2023-05-18T11:19:41.138Z,23.26
2023-05-18T11:20:45.721Z,23.80
2023-05-18T11:21:55.412Z,23.92
2023-05-18T11:23:03.569Z,23.82
2023-05-18T11:24:20.614Z,23.61
2023-05-18T11:25:38.803Z,23.58
2023-05-18T11:26:44.107Z,23.26
2023-05-18T11:27:49.754Z,23.06
2023-05-18T11:28:56.363Z,23.13
2023-05-18T11:30:11.722Z,23.40
2023-05-18T11:31:21.306Z,23.18
2023-05-18T11:32:33.116Z,23.64
2023-05-18T11:33:40.515Z,23.63
2023-05-18T11:34:45.521Z,23.60
2023-05-18T11:36:07.484Z,23.93
2023-05-18T11:37:10.724Z,24.48
2023-05-18T11:38:16.600Z,24.66
2023-05-18T11:39:24.289Z,24.29
2023-05-18T11:40:47.546Z,24.80
2023-05-18T11:42:02.073Z,24.21
2023-05-18T11:43:07.108Z,23.96
2023-05-18T11:44:17.144Z,24.28
2023-05-18T11:45:22.032Z,24.86
2023-05-18T11:46:32.714Z,25.40
2023-05-18T11:47:41.275Z,25.62
2023-05-18T11:48:45.242Z,25.87
2023-05-18T11:49:51.178Z,26.29
2023-05-18T11:50:56.660Z,26.80
2023-05-18T11:52:11.625Z,26.58
2023-05-18T11:53:16.379Z,26.27
2023-05-18T11:54:21.499Z,26.01
2023-05-18T11:55:40.679Z,25.55
2023-05-18T11:56:42.889Z,25.72
2023-05-18T11:57:50.691Z,25.72
2023-05-18T11:59:14.143Z,26.06
2023-05-18T12:00:20.280Z,25.43
2023-05-18T12:01:23.935Z,26.25
2023-05-18T12:02:30.522Z,26.88
2023-05-18T12:03:36.031Z,27.57
2023-05-18T12:04:46.950Z,28.02
2023-05-18T12:05:53.532Z,28.21
2023-05-18T12:06:57.414Z,28.38
2023-05-18T12:08:02.569Z,28.09
2023-05-18T12:09:06.630Z,28.84
2023-05-18T12:10:13.336Z,28.49
2023-05-18T12:11:16.154Z,28.04
2023-05-18T12:12:24.313Z,26.62
2023-05-18T12:13:28.031Z,26.64
2023-05-18T12:14:34.926Z,26.40
2023-05-18T12:15:40.351Z,26.01
2023-05-18T12:16:43.936Z,26.19
2023-05-18T12:17:50.604Z,25.87
2023-05-18T12:18:55.638Z,26.09
2023-05-18T12:20:00.368Z,25.99
2023-05-18T12:21:07.252Z,26.43
2023-05-18T12:22:09.637Z,26.76
2023-05-18T12:23:14.493Z,27.23
2023-05-18T12:24:17.123Z,27.18
2023-05-18T12:25:22.307Z,26.68
2023-05-18T12:26:26.230Z,26.75
2023-05-18T12:27:31.124Z,26.63
2023-05-18T12:28:33.465Z,26.59
2023-05-18T12:29:41.277Z,26.36
2023-05-18T12:30:44.292Z,25.79
2023-05-18T12:31:52.591Z,25.55
2023-05-18T12:32:56.686Z,25.58
2023-05-18T12:34:04.840Z,25.10
2023-05-18T12:35:11.197Z,25.64
2023-05-18T12:36:13.956Z,25.73
2023-05-18T12:37:18.617Z,25.32
2023-05-18T12:38:21.559Z,25.27
2023-05-18T12:39:29.038Z,25.70
2023-05-18T12:40:45.097Z,26.32
2023-05-18T12:41:47.448Z,27.27
2023-05-18T12:42:55.985Z,27.77
2023-05-18T12:43:59.470Z,27.47
2023-05-18T12:45:06.566Z,27.52
2023-05-18T12:46:10.137Z,26.90
2023-05-18T12:47:16.118Z,27.06
2023-05-18T12:48:18.805Z,26.24
2023-05-18T12:49:27.291Z,26.08
2023-05-18T12:50:30.645Z,25.58
2023-05-18T12:51:36.376Z,25.14
2023-05-18T12:52:43.570Z,25.19
2023-05-18T12:53:46.438Z,25.98
2023-05-18T12:54:55.956Z,25.85
2023-05-18T12:55:58.642Z,26.03
2023-05-18T12:57:10.348Z,25.82
2023-05-18T12:58:19.519Z,25.66
2023-05-18T12:59:22.121Z,26.25
2023-05-18T13:00:27.154Z,26.41
2023-05-18T13:01:29.556Z,26.84
2023-05-18T13:02:39.543Z,27.00
2023-05-18T13:03:42.563Z,26.87
2023-05-18T13:05:04.964Z,27.64
2023-05-18T13:06:09.811Z,28.29
2023-05-18T13:07:15.495Z,29.22
2023-05-18T13:08:22.416Z,29.98
2023-05-18T13:09:27.565Z,30.38
2023-05-18T13:10:31.891Z,31.21
2023-05-18T13:11:36.924Z,31.26
2023-05-18T13:12:43.839Z,30.52
2023-05-18T13:14:03.652Z,29.47
2023-05-18T13:15:12.007Z,28.00
2023-05-18T13:16:21.110Z,27.56
2023-05-18T13:17:23.809Z,27.78
2023-05-18T13:18:30.829Z,28.01
2023-05-18T13:19:35.777Z,27.55
2023-05-18T13:20:49.915Z,27.34
2023-05-18T13:22:00.437Z,28.19
2023-05-18T13:23:09.792Z,28.40
2023-05-18T13:24:17.588Z,29.06
2023-05-18T13:25:29.605Z,28.77
2023-05-18T13:26:39.972Z,28.54
2023-05-18T13:27:42.860Z,28.50
2023-05-18T13:28:49.592Z,28.69
2023-05-18T13:29:52.117Z,29.01
2023-05-18T13:30:58.558Z,29.27
2023-05-18T13:32:01.228Z,28.85
2023-05-18T13:33:08.515Z,29.40
2023-05-18T13:34:13.205Z,28.36
2023-05-18T13:35:19.485Z,27.91
2023-05-18T13:36:30.176Z,26.97
2023-05-18T13:37:32.691Z,26.85
2023-05-18T13:38:41.294Z,27.64
2023-05-18T13:39:43.693Z,28.33
2023-05-18T13:40:49.039Z,28.98
2023-05-18T13:41:55.016Z,29.21
2023-05-18T13:42:57.529Z,29.71
2023-05-18T13:44:02.572Z,29.74
2023-05-18T13:45:05.949Z,29.43
2023-05-18T13:46:11.711Z,28.22
2023-05-18T13:47:14.253Z,28.00
2023-05-18T13:48:19.630Z,26.75
2023-05-18T13:49:22.336Z,26.86
2023-05-18T13:50:27.486Z,26.96
2023-05-18T13:51:35.575Z,27.19
2023-05-18T13:52:38.349Z,27.41
2023-05-18T13:53:43.580Z,27.77
2023-05-18T13:54:46.225Z,28.19
2023-05-18T13:55:51.330Z,28.21
2023-05-18T13:56:55.002Z,28.52
2023-05-18T13:58:00.304Z,28.86
2023-05-18T13:59:03.777Z,28.51
2023-05-18T14:00:16.516Z,28.43
2023-05-18T14:01:25.377Z,28.29
2023-05-18T14:02:35.101Z,28.18
2023-05-18T14:03:41.597Z,27.89
2023-05-18T14:04:46.879Z,27.50
2023-05-18T14:05:53.053Z,26.46
2023-05-18T14:07:01.889Z,27.38
2023-05-18T14:08:08.043Z,27.13
2023-05-18T14:09:19.682Z,28.11
2023-05-18T14:10:24.381Z,28.82
2023-05-18T14:11:35.225Z,28.77
2023-05-18T14:12:39.325Z,29.45
2023-05-18T14:13:45.342Z,29.94
2023-05-18T14:15:00.556Z,29.69
2023-05-18T14:16:06.940Z,27.92
2023-05-18T14:18:31.995Z,26.62
2023-05-18T14:19:35.110Z,25.62
2023-05-18T14:20:43.840Z,25.14
2023-05-18T14:21:50.798Z,24.13